Time;durP1;ratioP1;P1;durP2;ratioP2;P2;SDS_P1;SDS_P2;PMS_P1;PMS_P2;Temp;Humidity;BMP_temperature;BMP_pressure;BME280_temperature;BME280_humidity;BME280_pressure;Samples;Min_cycle;Max_cycle;Signal;HPM_P1;HPM_P2
2022/07/26 04:13:53;;;;;;;12.00;6.17;;;;;;;19.48;63.61;99748.78;5557391;32;173786;-89
2022/07/26 04:16:56;;;;;;;10.57;6.15;;;;;;;19.51;64.25;99758.38;5543187;32;34503;-87
2022/07/26 04:19:58;;;;;;;7.40;5.90;;;;;;;19.64;64.23;99761.56;5536781;32;33968;-87
2022/07/26 04:23:01;;;;;;;8.10;5.97;;;;;;;19.83;64.25;99748.97;5528529;32;33895;-88
2022/07/26 04:26:04;;;;;;;11.57;6.15;;;;;;;20.05;63.87;99758.47;5524365;32;34274;-87
2022/07/26 04:29:07;;;;;;;9.63;6.20;;;;;;;20.28;62.52;99757.16;5524478;32;33676;-88
2022/07/26 04:32:12;;;;;;;10.95;6.60;;;;;;;20.55;62.53;99761.59;5525406;32;35199;-87
2022/07/26 04:35:15;;;;;;;11.65;6.35;;;;;;;20.77;62.28;99750.47;5538169;32;34115;-87
2022/07/26 04:38:18;;;;;;;9.00;5.97;;;;;;;21.06;61.29;99763.63;5525618;32;34863;-88
2022/07/26 04:41:21;;;;;;;9.48;6.50;;;;;;;21.22;60.55;99773.66;5523639;32;34250;-87
2022/07/26 04:44:24;;;;;;;7.93;6.03;;;;;;;21.34;59.77;99773.37;5523252;32;33904;-87
2022/07/26 04:47:27;;;;;;;11.07;6.10;;;;;;;21.36;57.27;99809.97;5522277;32;33836;-86
2022/07/26 04:50:29;;;;;;;6.85;5.43;;;;;;;21.22;55.36;99824.91;5523121;32;34032;-87
2022/07/26 04:53:32;;;;;;;10.15;5.70;;;;;;;21.11;53.65;99814.38;5524429;32;33867;-87
2022/07/26 04:56:35;;;;;;;11.12;5.65;;;;;;;21.44;52.74;99811.88;5543033;32;33902;-87
2022/07/26 04:59:38;;;;;;;6.43;5.28;;;;;;;21.36;52.39;99787.53;5546717;32;31503;-87
2022/07/26 05:02:41;;;;;;;6.43;5.82;;;;;;;21.40;52.58;99797.00;5553292;32;32265;-87
2022/07/26 05:05:44;;;;;;;9.32;5.65;;;;;;;21.57;51.49;99815.97;5549989;32;32643;-87
2022/07/26 05:08:46;;;;;;;9.95;5.95;;;;;;;21.75;50.53;99818.59;5562858;32;34042;-89
2022/07/26 05:11:50;;;;;;;7.25;5.55;;;;;;;21.92;49.35;99814.94;5563987;32;34170;-88
2022/07/26 05:14:55;;;;;;;13.13;6.03;;;;;;;21.99;49.92;99815.16;5561790;32;34230;-92
2022/07/26 05:18:03;;;;;;;6.03;5.18;;;;;;;22.30;50.29;99802.87;5561812;32;34815;-92
2022/07/26 05:21:08;;;;;;;;;;;;;;;22.66;49.08;99796.31;5562530;32;34056;-89
2022/07/26 05:24:11;;;;;;;8.52;5.00;;;;;;;23.07;46.58;99795.44;5553092;32;34779;-89
2022/07/26 05:27:14;;;;;;;9.30;5.70;;;;;;;23.40;48.00;99804.34;5535055;32;35078;-89
2022/07/26 05:30:17;;;;;;;13.32;5.12;;;;;;;24.14;45.56;99804.16;5529273;32;34548;-89
2022/07/26 05:33:19;;;;;;;9.95;5.85;;;;;;;24.40;44.88;99803.81;5541825;32;33947;-89
2022/07/26 05:36:22;;;;;;;12.20;5.07;;;;;;;24.60;44.46;99806.84;5544755;32;35314;-88
2022/07/26 05:39:25;;;;;;;8.45;5.25;;;;;;;25.89;42.29;99800.56;5545885;32;35216;-89
2022/07/26 05:42:28;;;;;;;6.60;5.82;;;;;;;26.53;39.50;99795.37;5522804;32;32202;-88
2022/07/26 05:45:31;;;;;;;12.13;5.87;;;;;;;27.70;36.66;99801.19;5532281;32;34558;-88
2022/07/26 05:48:37;;;;;;;8.60;5.37;;;;;;;28.25;36.74;99794.87;5538715;32;34304;-88
2022/07/26 05:51:40;;;;;;;10.38;5.85;;;;;;;29.17;34.87;99798.84;5529153;32;35406;-89
2022/07/26 05:54:42;;;;;;;8.82;5.43;;;;;;;29.49;34.74;99795.44;5529127;32;34167;-89
2022/07/26 05:57:46;;;;;;;6.60;5.25;;;;;;;29.69;34.78;99802.69;5525018;32;32598;-90
2022/07/26 06:00:54;;;;;;;11.85;5.60;;;;;;;29.69;34.51;99803.56;5544378;32;33918;-88
2022/07/26 06:04:00;;;;;;;10.18;5.55;;;;;;;30.14;33.24;99804.59;5540054;32;33913;-88
2022/07/26 06:07:02;;;;;;;7.43;5.82;;;;;;;31.49;31.71;99808.06;5548817;32;34327;-87
2022/07/26 06:10:06;;;;;;;9.27;6.00;;;;;;;32.26;31.37;99802.00;5548187;32;34870;-88
2022/07/26 06:13:09;;;;;;;12.48;6.25;;;;;;;31.27;33.95;99797.59;5547784;32;34456;-87
2022/07/26 06:16:12;;;;;;;10.90;6.30;;;;;;;30.00;36.50;99803.81;5534894;32;32662;-88
2022/07/26 06:19:15;;;;;;;19.65;6.85;;;;;;;30.10;37.43;99800.63;5548712;32;34505;-87
2022/07/26 06:22:18;;;;;;;10.57;7.15;;;;;;;30.34;37.44;99796.25;5548752;32;33925;-88
2022/07/26 06:25:20;;;;;;;13.73;7.82;;;;;;;29.83;39.18;99798.00;5533065;32;32983;-88
2022/07/26 06:28:23;;;;;;;14.75;7.12;;;;;;;30.43;38.47;99785.88;5529317;32;33853;-88
2022/07/26 06:31:28;;;;;;;14.82;7.47;;;;;;;31.07;37.90;99790.38;5529225;32;34482;-89
2022/07/26 06:34:31;;;;;;;12.15;6.87;;;;;;;30.50;39.27;99792.12;5534465;32;33596;-89
2022/07/26 06:37:39;;;;;;;12.52;7.25;;;;;;;30.98;38.45;99789.84;5528192;32;32456;-89
2022/07/26 06:40:42;;;;;;;8.75;7.28;;;;;;;30.83;39.27;99781.16;5532730;32;35643;-88
2022/07/26 06:43:45;;;;;;;10.18;6.78;;;;;;;30.74;39.40;99784.19;5542542;32;34470;-88
2022/07/26 06:46:48;;;;;;;12.13;7.22;;;;;;;30.33;40.48;99783.66;5540447;32;34036;-89
2022/07/26 06:49:51;;;;;;;11.60;7.20;;;;;;;30.24;40.51;99777.59;5544203;32;34150;-88
2022/07/26 06:52:54;;;;;;;14.35;7.62;;;;;;;29.44;42.40;99767.88;5537865;32;34086;-89
2022/07/26 06:55:56;;;;;;;9.55;7.62;;;;;;;29.17;42.98;99778.91;5534384;32;33893;-88
2022/07/26 06:58:59;;;;;;;11.18;7.55;;;;;;;29.31;43.10;99772.34;5516066;32;33483;-89
2022/07/26 07:02:03;;;;;;;15.57;7.93;;;;;;;29.41;42.47;99771.06;5530489;32;34651;-88
2022/07/26 07:05:06;;;;;;;8.88;7.30;;;;;;;29.23;43.54;99767.13;5533133;32;32337;-88
2022/07/26 07:08:09;;;;;;;12.48;7.25;;;;;;;29.96;41.20;99761.56;5536165;32;33833;-88
2022/07/26 07:11:13;;;;;;;9.77;7.32;;;;;;;30.29;40.95;99765.16;5536121;32;34892;-88
2022/07/26 07:14:19;;;;;;;13.95;7.30;;;;;;;29.77;42.07;99766.09;5532372;32;33909;-87
2022/07/26 07:17:22;;;;;;;14.70;7.68;;;;;;;30.35;41.08;99767.84;5541886;32;33709;-87
2022/07/26 07:20:27;;;;;;;10.40;7.10;;;;;;;31.59;38.31;99765.34;5534152;32;32495;-91
2022/07/26 07:23:32;;;;;;;11.10;7.35;;;;;;;31.85;38.14;99757.87;5539636;32;35161;-90
2022/07/26 07:26:39;;;;;;;11.27;6.78;;;;;;;31.38;38.41;99754.88;5530071;32;34484;-88
2022/07/26 07:29:43;;;;;;;10.27;6.82;;;;;;;30.65;40.08;99753.50;5540601;32;33781;-87
2022/07/26 07:32:45;;;;;;;8.90;6.45;;;;;;;30.82;40.65;99757.56;5519777;32;33808;-88
2022/07/26 07:35:49;;;;;;;10.68;6.82;;;;;;;30.67;40.20;99761.47;5538071;32;34566;-89
2022/07/26 07:38:52;;;;;;;10.30;7.32;;;;;;;30.97;40.45;99770.91;5597315;26;33629;-89
2022/07/26 07:41:56;;;;;;;15.65;6.87;;;;;;;31.90;38.66;99770.88;5563403;32;34043;-89
2022/07/26 07:45:03;;;;;;;14.07;6.60;;;;;;;32.18;37.97;99763.09;5551042;31;33610;-88
2022/07/26 07:48:06;;;;;;;9.02;6.62;;;;;;;31.67;38.42;99764.19;5550324;32;33305;-88
2022/07/26 07:51:09;;;;;;;7.32;6.40;;;;;;;31.94;38.42;99774.00;5547546;32;33758;-87
2022/07/26 07:54:14;;;;;;;7.07;6.20;;;;;;;31.99;38.43;99780.44;5556580;32;34601;-88
2022/07/26 07:57:20;;;;;;;8.00;5.87;;;;;;;30.95;39.87;99762.06;5550596;32;34021;-88
2022/07/26 08:00:26;;;;;;;10.13;6.00;;;;;;;31.83;38.49;99770.94;5549484;32;35664;-89
2022/07/26 08:03:29;;;;;;;10.70;6.20;;;;;;;32.02;38.47;99767.34;5568107;32;33834;-88
2022/07/26 08:06:40;;;;;;;8.48;6.20;;;;;;;31.95;38.61;99771.03;5574116;32;34442;-89
2022/07/26 08:09:51;;;;;;;10.65;6.50;;;;;;;31.39;40.16;99773.00;5560299;32;32335;-88
2022/07/26 08:12:54;;;;;;;14.75;6.97;;;;;;;31.43;39.38;99779.69;5567900;32;34660;-88
2022/07/26 08:15:57;;;;;;;10.98;6.55;;;;;;;30.39;42.39;99790.97;5560974;32;34770;-88
2022/07/26 08:19:02;;;;;;;15.32;6.40;;;;;;;31.22;41.53;99800.97;5548504;32;36106;-88
2022/07/26 08:22:07;;;;;;;15.18;6.30;;;;;;;31.74;40.41;99800.56;5562943;31;34320;-88
2022/07/26 08:25:09;;;;;;;16.80;6.30;;;;;;;32.24;39.97;99795.06;5537535;32;32828;-89
2022/07/26 08:28:12;;;;;;;14.75;6.32;;;;;;;30.62;43.00;99794.97;5533146;32;32569;-87
2022/07/26 08:31:35;;;;;;;18.15;6.00;;;;;;;31.65;41.47;99782.78;5533606;32;32373;-87
2022/07/26 08:34:38;;;;;;;14.90;6.35;;;;;;;30.98;42.84;99778.91;5547297;32;34279;-87
2022/07/26 08:37:40;;;;;;;17.17;6.53;;;;;;;29.63;45.66;99776.25;5539637;32;33275;-88
2022/07/26 08:40:43;;;;;;;16.10;6.12;;;;;;;29.86;45.98;99776.53;5548177;32;33040;-87
2022/07/26 08:43:46;;;;;;;10.43;6.30;;;;;;;30.81;43.48;99777.81;5552239;32;33475;-88
2022/07/26 08:46:55;;;;;;;13.23;6.45;;;;;;;30.82;43.54;99774.00;5548908;32;35082;-88
2022/07/26 08:49:57;;;;;;;11.57;6.07;;;;;;;30.59;44.17;99781.75;5546849;32;33849;-88
2022/07/26 08:53:05;;;;;;;6.53;5.87;;;;;;;31.57;42.19;99774.91;5559590;32;34214;-88
2022/07/26 08:56:08;;;;;;;11.00;6.07;;;;;;;32.14;40.25;99773.69;5565995;32;34122;-90
2022/07/26 08:59:16;;;;;;;9.38;6.62;;;;;;;32.52;39.89;99777.12;5565403;32;33819;-92
2022/07/26 09:02:38;;;;;;;8.32;6.30;;;;;;;33.28;38.33;99779.16;5542372;32;33104;-88
2022/07/26 09:05:41;;;;;;;8.18;6.05;;;;;;;33.15;36.65;99783.00;5568608;32;34949;-88
2022/07/26 09:08:47;;;;;;;11.55;6.40;;;;;;;33.75;35.77;99796.63;5554608;32;32567;-86
2022/07/26 09:11:50;;;;;;;9.35;6.25;;;;;;;32.64;37.84;99799.09;5560512;32;32568;-87
2022/07/26 09:14:53;;;;;;;9.10;6.50;;;;;;;32.97;37.17;99805.94;5561449;32;32676;-88
2022/07/26 09:18:00;;;;;;;13.82;6.72;;;;;;;32.98;36.87;99807.59;5561943;32;34725;-89
2022/07/26 09:21:02;;;;;;;9.85;6.57;;;;;;;31.58;39.01;99810.25;5562047;32;33871;-88
2022/07/26 09:24:06;;;;;;;10.18;6.85;;;;;;;30.96;40.46;99807.56;5555411;32;35382;-88
2022/07/26 09:27:12;;;;;;;13.23;6.68;;;;;;;31.65;40.43;99818.41;5549641;32;34643;-89
2022/07/26 09:30:15;;;;;;;10.20;6.80;;;;;;;31.84;39.10;99826.66;5538487;32;33534;-88
2022/07/26 09:33:18;;;;;;;10.98;7.00;;;;;;;30.75;40.90;99826.06;5537862;32;33113;-88
2022/07/26 09:36:21;;;;;;;8.50;6.55;;;;;;;30.61;41.10;99831.63;5535797;32;34444;-88
2022/07/26 09:39:24;;;;;;;7.57;6.78;;;;;;;30.29;41.79;99855.41;5543898;32;32283;-89
2022/07/26 09:42:37;;;;;;;12.75;6.65;;;;;;;29.58;43.45;99878.00;5534441;32;33074;-89
2022/07/26 09:45:39;;;;;;;8.73;6.65;;;;;;;29.33;44.57;99900.50;5546499;32;34880;-88
2022/07/26 09:48:42;;;;;;;9.68;6.37;;;;;;;28.76;46.00;99909.09;5540595;32;33884;-86
2022/07/26 09:52:14;;;;;;;12.77;6.62;;;;;;;28.69;46.59;99919.13;5542919;32;32941;-88
2022/07/26 09:55:17;;;;;;;12.32;6.68;;;;;;;27.73;50.33;99936.19;5564522;32;34181;-88
2022/07/26 09:58:24;;;;;;;14.98;6.75;;;;;;;27.47;52.33;99953.16;5555498;32;34896;-87
2022/07/26 10:01:26;;;;;;;12.68;6.60;;;;;;;27.01;55.83;99955.31;5540158;32;32572;-87
2022/07/26 10:04:29;;;;;;;10.88;6.57;;;;;;;26.49;59.25;99953.50;5556416;32;33925;-86
2022/07/26 10:07:32;;;;;;;10.63;7.03;;;;;;;25.35;66.15;99931.00;5545934;32;32898;-86
2022/07/26 10:11:07;;;;;;;10.75;7.30;;;;;;;24.23;74.76;99949.38;5559911;31;33988;-86
2022/07/26 10:14:31;;;;;;;16.20;8.02;;;;;;;23.96;81.18;99963.19;5561945;32;33737;-87
2022/07/26 10:17:45;;;;;;;10.93;7.35;;;;;;;23.33;86.51;99964.84;5545829;32;34857;-86
2022/07/26 10:20:53;;;;;;;11.35;8.20;;;;;;;22.43;90.76;99946.41;5558437;31;33811;-88
2022/07/26 10:24:00;;;;;;;11.98;8.20;;;;;;;22.08;97.73;99868.16;5562761;32;35067;-89
2022/07/26 10:27:04;;;;;;;13.02;8.70;;;;;;;22.16;98.56;99847.56;5566493;32;34508;-89
2022/07/26 10:30:17;;;;;;;11.98;8.02;;;;;;;22.19;99.44;99899.41;5550111;32;33901;-88
2022/07/26 10:33:23;;;;;;;11.68;8.55;;;;;;;21.72;100.00;99933.13;5549611;32;33177;-89
2022/07/26 10:36:30;;;;;;;11.73;8.80;;;;;;;21.76;100.00;99930.97;5543720;32;32485;-87
2022/07/26 10:39:33;;;;;;;10.75;8.80;;;;;;;21.78;100.00;99939.75;5544195;32;32517;-88
2022/07/26 10:42:43;;;;;;;11.73;8.90;;;;;;;22.16;100.00;99942.09;5559607;32;34243;-88
2022/07/26 10:45:46;;;;;;;10.80;9.52;;;;;;;22.19;100.00;99948.03;5537252;32;33115;-89
2022/07/26 10:49:02;;;;;;;10.50;8.55;;;;;;;22.39;100.00;99950.47;5561772;31;34021;-88
2022/07/26 10:52:17;;;;;;;10.73;8.88;;;;;;;22.27;100.00;99955.31;5539711;32;33447;-88
2022/07/26 10:55:20;;;;;;;9.60;8.32;;;;;;;22.58;100.00;99968.28;5549629;32;34246;-86
2022/07/26 10:58:25;;;;;;;13.00;9.32;;;;;;;22.70;99.23;99965.28;5556263;32;34382;-86
2022/07/26 11:01:36;;;;;;;10.60;8.70;;;;;;;22.68;99.69;99970.84;5557606;32;33546;-88
2022/07/26 11:04:40;;;;;;;11.57;8.85;;;;;;;22.80;98.13;99965.13;5567003;32;35394;-90
2022/07/26 11:08:07;;;;;;;11.80;9.48;;;;;;;22.82;99.50;99958.53;5577687;31;34113;-91
2022/07/26 11:11:09;;;;;;;12.35;10.00;;;;;;;22.67;98.26;99957.50;5551197;32;35700;-89
2022/07/26 11:14:14;;;;;;;11.43;9.68;;;;;;;22.44;97.22;99953.50;5561943;32;35153;-88
2022/07/26 11:17:26;;;;;;;11.05;8.82;;;;;;;22.42;100.00;99960.94;5554289;32;33988;-87
2022/07/26 11:20:29;;;;;;;11.02;9.65;;;;;;;22.82;98.82;99971.22;5569168;32;33896;-87
2022/07/26 11:23:34;;;;;;;11.85;9.15;;;;;;;23.01;98.27;99984.44;5570778;32;34595;-89
2022/07/26 11:26:45;;;;;;;17.62;10.13;;;;;;;22.89;94.31;99981.19;5545379;32;34285;-88
2022/07/26 11:29:48;;;;;;;11.82;9.38;;;;;;;22.86;94.10;99978.81;5539505;32;34586;-87
2022/07/26 11:32:54;;;;;;;11.10;8.93;;;;;;;22.84;95.16;99985.41;5550646;32;34984;-88
2022/07/26 11:35:56;;;;;;;14.05;9.45;;;;;;;22.92;94.04;99966.47;5536139;32;33184;-89
2022/07/26 11:39:01;;;;;;;10.60;9.48;;;;;;;23.10;92.74;99962.78;5550276;32;33770;-88
2022/07/26 11:42:06;;;;;;;14.35;8.90;;;;;;;22.97;92.60;99963.28;5543543;32;33398;-87
2022/07/26 11:45:10;;;;;;;11.23;8.88;;;;;;;23.00;92.55;99961.09;5554046;32;34180;-87
2022/07/26 11:48:12;;;;;;;11.25;9.32;;;;;;;23.25;92.31;99966.50;5555281;32;35121;-86
2022/07/26 11:51:21;;;;;;;11.35;9.32;;;;;;;23.39;91.47;99958.75;5544129;32;33538;-86
2022/07/26 11:54:27;;;;;;;14.77;10.23;;;;;;;23.22;90.96;99965.97;5558067;32;34845;-87
2022/07/26 11:57:30;;;;;;;11.63;9.63;;;;;;;23.02;90.78;99978.00;5559481;32;33505;-86
2022/07/26 12:00:34;;;;;;;12.13;9.88;;;;;;;23.24;90.96;99953.16;5540678;32;33230;-88
2022/07/26 12:03:38;;;;;;;10.70;9.20;;;;;;;23.34;90.51;99947.59;5583155;32;34470;-88
2022/07/26 12:06:41;;;;;;;11.30;9.63;;;;;;;23.38;89.69;99952.47;5619848;26;34915;-89
2022/07/26 12:09:49;;;;;;;10.88;9.25;;;;;;;23.50;88.89;99957.53;5656629;26;34196;-89
2022/07/26 12:13:13;;;;;;;11.40;10.20;;;;;;;23.44;90.16;99953.69;5603125;31;35501;-89
2022/07/26 12:16:35;;;;;;;14.15;10.68;;;;;;;23.37;91.28;99958.06;5628823;26;34037;-89
2022/07/26 12:19:38;;;;;;;14.48;9.40;;;;;;;23.41;91.41;99957.56;5547163;32;34112;-89
2022/07/26 12:22:52;;;;;;;11.95;9.70;;;;;;;23.54;90.31;99957.03;5547736;32;34221;-88
2022/07/26 12:25:55;;;;;;;12.30;9.35;;;;;;;23.73;90.44;99951.41;5548464;32;33719;-86
2022/07/26 12:29:23;;;;;;;9.38;8.45;;;;;;;23.96;86.42;99949.66;5546823;32;34522;-87
2022/07/26 12:32:29;;;;;;;15.07;9.07;;;;;;;23.87;86.95;99952.53;5569009;26;32790;-87
2022/07/26 12:35:34;;;;;;;;;;;;;;;23.85;85.78;99950.03;5556838;32;33081;-88
2022/07/26 12:38:42;;;;;;;9.32;7.82;;;;;;;23.81;87.04;99938.69;5675174;26;35498;-87
2022/07/26 12:41:49;;;;;;;9.50;7.97;;;;;;;24.04;84.51;99940.63;5560876;32;35088;-86
2022/07/26 12:44:52;;;;;;;9.88;7.95;;;;;;;24.22;84.78;99939.56;5557153;32;34744;-86
2022/07/26 12:47:56;;;;;;;9.07;8.18;;;;;;;24.00;83.20;99944.72;5538478;32;32836;-88
2022/07/26 12:50:59;;;;;;;9.32;8.02;;;;;;;23.47;85.89;99950.59;5556627;26;34484;-87
2022/07/26 12:54:05;;;;;;;10.27;8.50;;;;;;;23.68;86.91;99947.34;5531929;32;35307;-86
2022/07/26 12:57:07;;;;;;;9.90;8.27;;;;;;;23.58;86.84;99951.28;5532603;32;34185;-87
2022/07/26 13:00:13;;;;;;;8.07;7.28;;;;;;;23.64;86.81;99954.13;5531742;32;33538;-87
2022/07/26 13:03:21;;;;;;;8.63;7.75;;;;;;;23.54;86.97;99942.66;5521671;32;34447;-87
2022/07/26 13:06:23;;;;;;;8.95;7.93;;;;;;;23.66;85.97;99945.84;5518364;32;33516;-87
2022/07/26 13:09:27;;;;;;;10.02;9.00;;;;;;;24.02;84.05;99947.25;5511780;32;33636;-88
2022/07/26 13:12:29;;;;;;;9.82;8.82;;;;;;;24.28;81.31;99944.28;5511161;32;34348;-87
2022/07/26 13:15:32;;;;;;;10.15;8.90;;;;;;;24.39;81.44;99943.03;5497277;32;32691;-87
2022/07/26 13:18:39;;;;;;;10.15;8.73;;;;;;;24.75;79.55;99931.63;5515223;32;32867;-88
2022/07/26 13:21:42;;;;;;;9.43;8.52;;;;;;;25.58;76.44;99940.16;5530316;32;34165;-88
2022/07/26 13:24:48;;;;;;;10.55;8.52;;;;;;;26.26;73.37;99931.91;5530275;32;34308;-87
2022/07/26 13:27:52;;;;;;;9.95;8.25;;;;;;;26.71;70.80;99929.03;5531345;32;34489;-87
2022/07/26 13:30:55;;;;;;;9.27;8.32;;;;;;;26.26;70.57;99941.91;5529377;32;35207;-87
2022/07/26 13:33:59;;;;;;;11.02;8.50;;;;;;;25.60;74.59;99947.09;5529089;32;34587;-87
2022/07/26 13:37:02;;;;;;;10.07;8.43;;;;;;;25.40;75.01;99939.41;5529295;32;35189;-89
2022/07/26 13:40:10;;;;;;;10.27;9.27;;;;;;;25.72;73.65;99942.03;5530135;32;34062;-89
2022/07/26 13:43:13;;;;;;;10.50;8.52;;;;;;;25.39;74.96;99942.34;5530281;32;34288;-89
2022/07/26 13:46:16;;;;;;;9.73;8.77;;;;;;;25.40;74.74;99952.16;5531522;32;33627;-89
2022/07/26 13:49:19;;;;;;;9.40;8.60;;;;;;;24.64;77.71;99961.91;5530802;32;34108;-89
2022/07/26 13:52:22;;;;;;;10.60;8.20;;;;;;;24.37;78.03;99961.34;5529580;32;33031;-89
2022/07/26 13:55:25;;;;;;;12.15;9.63;;;;;;;24.50;79.18;99960.78;5530591;32;33965;-89
2022/07/26 13:58:27;;;;;;;11.40;8.65;;;;;;;24.41;78.95;99954.56;5532257;32;34742;-89
2022/07/26 14:01:32;;;;;;;12.52;9.32;;;;;;;24.72;77.92;99967.25;5524347;32;33777;-88
2022/07/26 14:04:47;;;;;;;10.25;8.90;;;;;;;25.04;76.48;99967.22;5535885;32;34916;-89
2022/07/26 14:07:50;;;;;;;10.05;9.05;;;;;;;24.51;76.60;99973.31;5518653;32;32948;-90
2022/07/26 14:10:53;;;;;;;11.02;9.88;;;;;;;24.72;77.24;99969.97;5536783;32;34026;-90
